Time;durP1;ratioP1;P1;durP2;ratioP2;P2;SDS_P1;SDS_P2;PMS_P1;PMS_P2;Temp;Humidity;BMP_temperature;BMP_pressure;BME280_temperature;BME280_humidity;BME280_pressure;Samples;Min_cycle;Max_cycle;Signal;HPM_P1;HPM_P2
2021/03/15 00:01:12;;;;;;;8.23;1.93;;;20.30;99.90;;;;;;5071050;28;20175;-69
2021/03/15 00:03:40;;;;;;;11.17;2.73;;;20.30;99.90;;;;;;5071035;28;20699;-71
2021/03/15 00:06:08;;;;;;;10.43;1.53;;;20.30;99.90;;;;;;5066964;28;20213;-70
2021/03/15 00:08:35;;;;;;;9.33;1.43;;;20.40;99.90;;;;;;5069435;28;20329;-70
2021/03/15 00:11:06;;;;;;;13.13;1.80;;;20.50;99.90;;;;;;5069105;28;20175;-70
2021/03/15 00:13:33;;;;;;;9.33;1.20;;;20.60;99.90;;;;;;5072005;28;20194;-71
2021/03/15 00:16:01;;;;;;;7.30;1.47;;;20.80;99.90;;;;;;5072213;28;20175;-69
2021/03/15 00:18:30;;;;;;;9.97;1.57;;;20.80;99.50;;;;;;5070481;28;20174;-71
2021/03/15 00:20:57;;;;;;;8.27;1.83;;;20.80;99.10;;;;;;5070913;28;20183;-69
2021/03/15 00:23:25;;;;;;;5.37;1.40;;;20.80;99.30;;;;;;5070942;28;20229;-70
2021/03/15 00:25:52;;;;;;;9.33;1.70;;;21.00;99.90;;;;;;5070094;28;20285;-71
2021/03/15 00:28:19;;;;;;;10.77;1.67;;;21.30;99.10;;;;;;5068404;28;20223;-70
2021/03/15 00:30:47;;;;;;;13.90;1.90;;;21.20;99.30;;;;;;5069200;28;20187;-69
2021/03/15 00:33:14;;;;;;;7.07;1.60;;;21.50;98.90;;;;;;5070840;28;20206;-70
2021/03/15 00:35:42;;;;;;;12.67;1.90;;;21.50;98.70;;;;;;5065604;28;20186;-69
2021/03/15 00:38:09;;;;;;;6.07;1.30;;;21.70;99.20;;;;;;5068548;28;20232;-70
2021/03/15 00:40:37;;;;;;;7.87;1.60;;;21.70;98.20;;;;;;5067449;28;20642;-70
2021/03/15 00:43:04;;;;;;;12.27;1.73;;;21.50;98.30;;;;;;5069575;28;20558;-70
2021/03/15 00:45:32;;;;;;;6.90;1.57;;;21.70;98.70;;;;;;5070207;28;20195;-71
2021/03/15 00:47:59;;;;;;;10.33;1.50;;;21.60;98.20;;;;;;5069474;28;20226;-70
2021/03/15 00:50:32;;;;;;;9.10;1.50;;;21.70;98.50;;;;;;5069285;28;20184;-71
2021/03/15 00:53:00;;;;;;;8.13;1.27;;;21.60;97.90;;;;;;5067560;28;20548;-71
2021/03/15 00:55:27;;;;;;;10.87;1.80;;;21.70;98.30;;;;;;5068397;28;20248;-71
2021/03/15 00:57:55;;;;;;;9.73;1.83;;;21.70;97.80;;;;;;5065813;28;20179;-70
2021/03/15 01:00:29;;;;;;;6.23;1.60;;;21.80;98.30;;;;;;5069005;28;20236;-68
2021/03/15 01:02:56;;;;;;;8.93;1.70;;;21.70;97.70;;;;;;5070621;28;20187;-71
2021/03/15 01:05:28;;;;;;;8.77;1.60;;;21.90;97.80;;;;;;5067830;28;20289;-69
2021/03/15 01:07:56;;;;;;;9.70;1.63;;;22.00;97.50;;;;;;5070693;28;20203;-70
2021/03/15 01:10:27;;;;;;;11.53;2.50;;;22.00;97.50;;;;;;5071772;28;20236;-69
2021/03/15 01:12:55;;;;;;;9.80;2.17;;;22.20;97.50;;;;;;5070279;28;20649;-69
2021/03/15 01:15:24;;;;;;;6.23;1.53;;;22.40;97.30;;;;;;5073508;28;20187;-71
2021/03/15 01:17:51;;;;;;;7.00;1.47;;;22.20;96.80;;;;;;5070163;28;20186;-68
2021/03/15 01:20:19;;;;;;;9.47;1.27;;;22.30;97.00;;;;;;5071998;28;20199;-70
2021/03/15 01:22:46;;;;;;;7.73;1.73;;;22.40;97.20;;;;;;5070284;28;20264;-70
2021/03/15 01:25:16;;;;;;;9.20;1.60;;;22.40;96.60;;;;;;5072172;28;20188;-68
2021/03/15 01:27:43;;;;;;;9.57;2.43;;;22.50;96.10;;;;;;5073977;28;20287;-71
2021/03/15 01:30:17;;;;;;;8.57;1.63;;;22.40;96.90;;;;;;5070941;28;20183;-68
2021/03/15 01:32:44;;;;;;;10.93;1.80;;;22.50;97.00;;;;;;5068798;28;20183;-69
2021/03/15 01:35:12;;;;;;;13.40;1.93;;;22.50;96.80;;;;;;5070522;28;20638;-70
2021/03/15 01:37:39;;;;;;;5.20;1.10;;;22.70;96.80;;;;;;5066835;28;20179;-71
2021/03/15 01:40:07;;;;;;;10.77;2.03;;;22.50;96.40;;;;;;5068915;28;20202;-71
2021/03/15 01:42:34;;;;;;;6.83;1.50;;;22.50;96.00;;;;;;5069798;28;20638;-67
2021/03/15 01:45:03;;;;;;;6.30;1.43;;;22.60;96.00;;;;;;5073238;28;20550;-69
2021/03/15 01:47:31;;;;;;;9.17;1.50;;;22.60;96.20;;;;;;5067800;28;20242;-71
2021/03/15 01:49:58;;;;;;;8.03;1.43;;;22.90;95.60;;;;;;5068286;28;20646;-71
2021/03/15 01:52:26;;;;;;;6.80;1.80;;;22.90;95.20;;;;;;5071893;28;20783;-69
2021/03/15 01:54:54;;;;;;;9.23;2.03;;;22.90;95.30;;;;;;5070688;28;20590;-69
2021/03/15 01:57:22;;;;;;;7.07;1.63;;;23.20;95.50;;;;;;5071605;28;20364;-69
2021/03/15 01:59:49;;;;;;;7.80;1.50;;;23.00;95.40;;;;;;5072244;28;20245;-70
2021/03/15 02:02:16;;;;;;;9.27;1.50;;;23.10;95.40;;;;;;5073594;28;20180;-70
2021/03/15 02:04:44;;;;;;;7.63;2.20;;;22.70;95.70;;;;;;5072304;28;20179;-70
2021/03/15 02:07:12;;;;;;;6.80;1.80;;;22.40;96.00;;;;;;5066464;28;20184;-70
2021/03/15 02:09:40;;;;;;;10.43;1.27;;;22.30;96.20;;;;;;5072547;28;20658;-70
2021/03/15 02:12:45;;;;;;;5.40;1.67;;;22.40;96.50;;;;;;5066694;28;20200;-72
2021/03/15 02:15:41;;;;;;;11.57;1.70;;;22.40;96.20;;;;;;5071245;28;20666;-70
2021/03/15 02:18:12;;;;;;;9.07;1.53;;;22.70;96.10;;;;;;5070453;28;20191;-70
2021/03/15 02:20:44;;;;;;;8.97;1.33;;;23.20;96.00;;;;;;5072087;28;20180;-69
2021/03/15 02:23:43;;;;;;;5.40;1.37;;;23.40;94.90;;;;;;5070176;28;20258;-69
2021/03/15 02:26:16;;;;;;;6.43;2.17;;;23.50;94.70;;;;;;5073057;28;20190;-69
2021/03/15 02:29:11;;;;;;;8.83;1.73;;;23.80;94.50;;;;;;5072518;28;20231;-71
2021/03/15 02:31:45;;;;;;;9.53;2.27;;;24.00;93.80;;;;;;5073260;28;20255;-71
2021/03/15 02:34:33;;;;;;;9.27;1.27;;;23.90;94.10;;;;;;5072069;28;20195;-69
2021/03/15 02:37:03;;;;;;;8.30;1.53;;;24.00;93.80;;;;;;5069218;28;20183;-70
2021/03/15 02:39:39;;;;;;;11.77;1.30;;;24.20;93.20;;;;;;5074108;28;20642;-69
2021/03/15 02:42:15;;;;;;;5.73;1.40;;;24.40;93.20;;;;;;5076303;28;20190;-72
2021/03/15 02:44:46;;;;;;;7.03;1.50;;;24.60;93.00;;;;;;5075724;28;20183;-68
2021/03/15 02:47:24;;;;;;;6.27;1.50;;;24.50;92.60;;;;;;5069566;28;20214;-69
2021/03/15 02:50:01;;;;;;;10.13;2.03;;;24.70;92.20;;;;;;5072096;28;20194;-70
2021/03/15 02:52:30;;;;;;;8.23;1.30;;;24.50;92.40;;;;;;5071751;28;20187;-69
2021/03/15 02:55:02;;;;;;;7.07;1.60;;;24.70;92.10;;;;;;5074573;28;20567;-71
2021/03/15 02:57:32;;;;;;;8.77;1.17;;;24.90;92.30;;;;;;5074647;28;20183;-69
2021/03/15 03:00:00;;;;;;;6.57;1.87;;;25.10;91.90;;;;;;5073380;28;20187;-71
2021/03/15 03:02:28;;;;;;;13.43;1.73;;;25.40;91.00;;;;;;5071784;28;20187;-69
2021/03/15 03:04:57;;;;;;;6.13;1.40;;;25.30;91.30;;;;;;5068805;28;20182;-69
2021/03/15 03:07:25;;;;;;;5.73;1.30;;;25.30;91.20;;;;;;5072706;28;20183;-69
2021/03/15 03:09:55;;;;;;;9.17;1.17;;;25.10;91.30;;;;;;5075472;28;20199;-69
2021/03/15 03:12:23;;;;;;;10.77;1.90;;;25.20;91.20;;;;;;5072664;28;20194;-70
2021/03/15 03:14:51;;;;;;;8.83;1.40;;;25.10;91.10;;;;;;5072755;28;20218;-69
2021/03/15 03:17:20;;;;;;;4.57;1.57;;;25.20;90.70;;;;;;5072571;28;20171;-71
2021/03/15 03:19:49;;;;;;;3.67;1.13;;;25.20;90.80;;;;;;5069714;28;20543;-68
2021/03/15 03:22:18;;;;;;;5.97;1.40;;;25.50;90.70;;;;;;5071793;28;20534;-70
2021/03/15 03:24:47;;;;;;;4.57;1.60;;;25.50;90.70;;;;;;5066109;28;20489;-70
2021/03/15 03:27:16;;;;;;;6.33;1.37;;;25.60;90.20;;;;;;5072207;28;20228;-69
2021/03/15 03:29:45;;;;;;;9.80;1.07;;;25.60;90.30;;;;;;5067080;28;20187;-70
2021/03/15 03:32:13;;;;;;;4.23;1.40;;;25.80;90.10;;;;;;5065905;28;20192;-70
2021/03/15 03:34:42;;;;;;;8.47;1.80;;;25.60;90.00;;;;;;5059393;28;20184;-70
2021/03/15 03:37:09;;;;;;;8.73;2.40;;;25.80;89.60;;;;;;5069192;28;20190;-68
2021/03/15 03:39:37;;;;;;;5.27;1.17;;;26.30;88.80;;;;;;5072640;28;20167;-71
2021/03/15 03:42:04;;;;;;;6.67;1.13;;;26.70;88.40;;;;;;5064011;28;20277;-69
2021/03/15 03:44:32;;;;;;;8.07;1.37;;;26.50;86.10;;;;;;5072982;28;20217;-69
2021/03/15 03:46:59;;;;;;;3.57;1.30;;;26.20;88.80;;;;;;5072522;28;20270;-70
2021/03/15 03:49:27;;;;;;;9.20;1.43;;;26.60;87.10;;;;;;5071717;28;20596;-70
2021/03/15 03:52:07;;;;;;;9.70;1.20;;;26.70;87.00;;;;;;5071111;28;20186;-70
2021/03/15 03:54:44;;;;;;;13.70;1.43;;;26.70;86.30;;;;;;5057318;28;20288;-68
2021/03/15 03:57:20;;;;;;;6.17;1.40;;;26.50;85.30;;;;;;5054030;28;20167;-69
2021/03/15 03:59:52;;;;;;;7.13;1.10;;;26.30;85.20;;;;;;5069830;28;20299;-69
2021/03/15 04:02:23;;;;;;;8.97;1.30;;;26.60;86.60;;;;;;5071087;28;20481;-69
2021/03/15 04:04:57;;;;;;;6.17;1.17;;;27.10;83.10;;;;;;5070129;28;20179;-68
2021/03/15 04:07:29;;;;;;;6.07;1.13;;;27.00;83.10;;;;;;5068008;28;20297;-70
2021/03/15 04:10:08;;;;;;;11.47;1.43;;;27.40;81.70;;;;;;5062954;28;20206;-69
2021/03/15 04:12:40;;;;;;;7.00;1.30;;;27.30;82.60;;;;;;5065150;28;20189;-71
2021/03/15 04:15:09;;;;;;;7.23;1.30;;;27.30;82.30;;;;;;5067686;28;20178;-70
2021/03/15 04:17:40;;;;;;;5.70;1.07;;;27.30;83.00;;;;;;5069839;28;20254;-71
2021/03/15 04:20:09;;;;;;;4.73;1.13;;;27.40;82.10;;;;;;5069828;28;20673;-68
2021/03/15 04:22:57;;;;;;;6.13;1.23;;;27.40;81.50;;;;;;5071626;28;20168;-68
2021/03/15 04:25:29;;;;;;;6.13;1.10;;;27.30;81.10;;;;;;5072336;28;20175;-69
2021/03/15 04:27:58;;;;;;;8.57;1.13;;;27.70;80.00;;;;;;5071785;28;20237;-70
2021/03/15 04:30:26;;;;;;;6.77;1.23;;;27.60;80.30;;;;;;5072090;28;20177;-68
2021/03/15 04:32:55;;;;;;;7.40;1.00;;;27.60;79.90;;;;;;5071372;28;20244;-71
2021/03/15 04:35:31;;;;;;;4.73;1.20;;;28.10;79.70;;;;;;5072003;28;20171;-69
2021/03/15 04:38:01;;;;;;;11.07;1.67;;;28.10;78.50;;;;;;5071897;28;20198;-70
2021/03/15 04:40:30;;;;;;;2.57;0.80;;;27.90;79.50;;;;;;5067239;28;20187;-70
2021/03/15 04:43:00;;;;;;;6.83;1.17;;;27.70;79.00;;;;;;5064464;28;20176;-71
2021/03/15 04:45:34;;;;;;;7.17;1.60;;;28.40;79.20;;;;;;5070208;28;20186;-71
2021/03/15 04:48:04;;;;;;;5.00;1.10;;;28.40;77.90;;;;;;5075603;28;20207;-71
2021/03/15 04:50:33;;;;;;;3.93;1.03;;;28.60;76.30;;;;;;5074785;28;20261;-71
2021/03/15 04:53:03;;;;;;;6.60;1.30;;;28.70;76.50;;;;;;5075372;28;20187;-70
2021/03/15 04:55:31;;;;;;;7.27;1.40;;;28.80;75.20;;;;;;5075732;28;20646;-71
2021/03/15 04:58:05;;;;;;;4.93;1.30;;;28.70;75.00;;;;;;5076121;28;20179;-71
2021/03/15 05:00:33;;;;;;;5.13;1.33;;;28.80;74.80;;;;;;5075521;28;20175;-72
2021/03/15 05:03:08;;;;;;;6.33;1.00;;;29.10;74.60;;;;;;5073091;28;20207;-72
2021/03/15 05:05:38;;;;;;;7.50;1.33;;;29.30;74.30;;;;;;5073708;28;20177;-71
2021/03/15 05:08:08;;;;;;;7.70;1.30;;;29.30;72.70;;;;;;5075486;28;20206;-72
2021/03/15 05:10:36;;;;;;;3.40;0.97;;;29.50;71.90;;;;;;5074937;28;20229;-72
2021/03/15 05:13:05;;;;;;;5.73;1.57;;;29.00;72.10;;;;;;5075639;28;20210;-73
2021/03/15 05:15:34;;;;;;;6.17;1.37;;;29.10;73.30;;;;;;5075338;28;20187;-71
2021/03/15 05:18:02;;;;;;;6.37;1.07;;;29.60;71.90;;;;;;5074819;28;20177;-70
2021/03/15 05:20:35;;;;;;;7.20;1.50;;;29.70;70.90;;;;;;5075127;28;20191;-72
2021/03/15 05:23:12;;;;;;;2.95;0.95;;;29.80;72.90;;;;;;5075472;28;20171;-71
2021/03/15 05:25:44;;;;;;;5.45;1.10;;;29.90;71.70;;;;;;5075625;28;20179;-73
2021/03/15 05:28:12;;;;;;;7.88;1.38;;;30.10;71.40;;;;;;5073085;28;20223;-72
2021/03/15 05:30:41;;;;;;;3.87;1.10;;;29.60;71.40;;;;;;5074533;28;20187;-73
2021/03/15 05:33:14;;;;;;;11.38;3.70;;;29.60;70.40;;;;;;5072889;28;20247;-69
2021/03/15 05:35:44;;;;;;;10.73;2.67;;;30.00;71.20;;;;;;5075431;28;20512;-69
2021/03/15 05:38:12;;;;;;;5.40;1.20;;;30.20;70.30;;;;;;5075218;28;20178;-68
2021/03/15 05:40:42;;;;;;;3.83;1.10;;;30.50;68.60;;;;;;5074562;28;20187;-70
2021/03/15 05:43:32;;;;;;;8.82;1.20;;;30.20;69.00;;;;;;5062579;28;20329;-70
2021/03/15 05:46:06;;;;;;;7.30;1.30;;;30.60;68.20;;;;;;5065542;28;20527;-68
2021/03/15 05:48:41;;;;;;;5.25;1.40;;;29.90;69.30;;;;;;5073224;28;20633;-69
2021/03/15 05:51:49;;;;;;;8.93;1.45;;;29.90;69.60;;;;;;5074947;28;20189;-69
2021/03/15 05:54:41;;;;;;;12.30;0.97;;;30.00;70.20;;;;;;5064121;28;20179;-69
2021/03/15 05:57:35;;;;;;;6.13;1.35;;;29.90;70.00;;;;;;5057052;28;20179;-69
2021/03/15 06:00:10;;;;;;;5.27;1.20;;;29.40;69.80;;;;;;5066153;28;20183;-70
2021/03/15 06:02:56;;;;;;;6.82;1.75;;;29.60;69.10;;;;;;5072187;28;20652;-68
2021/03/15 06:05:28;;;;;;;5.55;1.77;;;29.90;69.40;;;;;;5073504;28;20183;-68
2021/03/15 06:08:30;;;;;;;13.80;3.70;;;30.10;67.80;;;;;;5074214;28;20211;-69
2021/03/15 06:11:18;;;;;;;8.65;3.33;;;30.10;67.30;;;;;;5074172;28;20206;-71
2021/03/15 06:13:46;;;;;;;6.70;1.70;;;29.30;69.50;;;;;;5071946;28;20187;-70
2021/03/15 06:16:16;;;;;;;7.28;1.30;;;29.60;68.50;;;;;;5062219;28;20187;-69
2021/03/15 06:18:45;;;;;;;5.27;1.40;;;29.80;69.40;;;;;;5066031;28;20191;-67
2021/03/15 06:21:13;;;;;;;5.10;1.40;;;29.90;69.50;;;;;;5072389;28;20236;-71
2021/03/15 06:23:40;;;;;;;9.52;1.20;;;29.30;69.00;;;;;;5074056;28;20537;-68
2021/03/15 06:26:12;;;;;;;8.17;1.60;;;29.50;70.40;;;;;;5074179;28;20213;-71
2021/03/15 06:28:39;;;;;;;9.65;1.38;;;29.10;69.90;;;;;;5074047;28;20254;-68
2021/03/15 06:31:08;;;;;;;5.53;1.17;;;29.50;69.40;;;;;;5074030;28;20213;-70
2021/03/15 06:33:35;;;;;;;6.67;1.37;;;29.30;69.90;;;;;;5072248;28;20217;-71
2021/03/15 06:36:05;;;;;;;4.27;0.90;;;28.80;69.80;;;;;;5073335;28;20236;-71
2021/03/15 06:38:33;;;;;;;5.03;1.10;;;29.00;70.50;;;;;;5079327;28;20262;-69
2021/03/15 06:41:04;;;;;;;6.88;1.42;;;29.00;69.30;;;;;;5079934;28;20235;-71
2021/03/15 06:43:32;;;;;;;8.50;3.50;;;28.50;71.00;;;;;;5073954;28;20179;-69
2021/03/15 06:46:00;;;;;;;5.40;1.80;;;28.80;71.30;;;;;;5073767;28;20175;-69
2021/03/15 06:48:27;;;;;;;8.50;1.85;;;29.10;70.00;;;;;;5072733;28;20207;-70
2021/03/15 06:50:56;;;;;;;12.70;1.33;;;28.60;70.90;;;;;;5064322;28;20267;-69
2021/03/15 06:53:35;;;;;;;5.20;1.10;;;28.50;70.50;;;;;;5066395;28;20654;-69
2021/03/15 06:56:03;;;;;;;11.30;6.80;;;28.40;70.80;;;;;;5056318;28;20192;-71
2021/03/15 06:58:34;;;;;;;4.10;1.10;;;27.90;71.70;;;;;;5072917;28;20189;-68
2021/03/15 07:01:15;;;;;;;6.80;2.37;;;28.00;72.00;;;;;;5071679;28;20189;-68
2021/03/15 07:03:44;;;;;;;11.57;5.83;;;28.00;71.90;;;;;;5068541;28;20190;-68
2021/03/15 07:06:12;;;;;;;7.97;1.13;;;28.10;71.80;;;;;;5073382;28;20183;-68
2021/03/15 07:08:41;;;;;;;4.03;1.20;;;28.00;72.60;;;;;;5072010;28;20696;-71
2021/03/15 07:11:23;;;;;;;5.43;1.43;;;28.00;72.00;;;;;;5073243;28;20175;-69
2021/03/15 07:13:52;;;;;;;8.53;1.40;;;27.30;72.90;;;;;;5072978;28;20183;-71
2021/03/15 07:16:33;;;;;;;4.33;1.37;;;27.20;74.20;;;;;;5066313;28;20183;-68
2021/03/15 07:19:02;;;;;;;7.63;1.33;;;27.10;73.90;;;;;;5067613;28;20184;-68
2021/03/15 07:21:39;;;;;;;5.87;1.30;;;27.20;73.90;;;;;;5071240;28;20638;-68
2021/03/15 07:24:11;;;;;;;8.47;1.73;;;26.80;74.60;;;;;;5072593;28;20209;-67
2021/03/15 07:26:46;;;;;;;11.50;1.57;;;26.60;75.20;;;;;;5071452;28;20190;-67
2021/03/15 07:29:16;;;;;;;7.03;1.20;;;26.00;75.70;;;;;;5072562;28;20214;-68
2021/03/15 07:31:50;;;;;;;5.37;1.30;;;25.30;78.00;;;;;;5072292;28;20179;-69
2021/03/15 07:34:20;;;;;;;7.37;1.47;;;25.10;78.90;;;;;;5066184;28;20180;-68
2021/03/15 07:36:59;;;;;;;4.00;1.30;;;24.50;80.40;;;;;;5054353;28;20180;-68
2021/03/15 07:39:29;;;;;;;8.77;2.47;;;23.90;82.00;;;;;;5072131;28;20175;-68
2021/03/15 07:42:02;;;;;;;6.33;1.30;;;23.50;83.80;;;;;;5063515;28;20646;-69
2021/03/15 07:44:34;;;;;;;9.53;3.03;;;23.40;84.70;;;;;;5072121;28;20214;-68
2021/03/15 07:47:04;;;;;;;9.03;1.60;;;22.90;86.10;;;;;;5076825;28;20190;-69
2021/03/15 07:49:36;;;;;;;7.87;1.07;;;22.70;87.10;;;;;;5071456;28;20564;-66
2021/03/15 07:52:05;;;;;;;10.00;1.50;;;22.60;88.50;;;;;;5072843;28;20163;-70
2021/03/15 07:54:41;;;;;;;11.93;1.87;;;22.40;89.00;;;;;;5069936;28;20252;-71
2021/03/15 07:57:21;;;;;;;7.87;1.50;;;22.20;89.60;;;;;;5066164;28;20179;-67
2021/03/15 07:59:52;;;;;;;7.33;2.40;;;22.00;90.40;;;;;;5052818;28;20179;-71
2021/03/15 08:02:24;;;;;;;9.10;2.03;;;21.80;90.80;;;;;;5060687;28;20192;-71
2021/03/15 08:04:54;;;;;;;15.90;3.30;;;21.60;91.50;;;;;;5062570;28;20240;-70
2021/03/15 08:07:23;;;;;;;10.43;2.70;;;21.70;91.20;;;;;;5064747;28;20187;-72
2021/03/15 08:09:54;;;;;;;7.67;1.47;;;21.60;91.80;;;;;;5065696;28;20596;-67
2021/03/15 08:12:30;;;;;;;9.47;1.83;;;21.60;91.80;;;;;;5068056;28;20191;-68
2021/03/15 08:15:07;;;;;;;14.20;1.70;;;21.50;92.30;;;;;;5070375;28;20205;-71
2021/03/15 08:17:38;;;;;;;4.83;1.30;;;21.30;92.60;;;;;;5071150;28;20179;-68
2021/03/15 08:20:07;;;;;;;6.17;1.43;;;21.30;93.00;;;;;;5054466;28;20215;-71
2021/03/15 08:22:38;;;;;;;8.97;1.20;;;21.20;93.20;;;;;;5068472;28;20182;-70
2021/03/15 08:25:09;;;;;;;7.63;1.67;;;21.20;93.30;;;;;;5071544;28;20178;-67
2021/03/15 08:27:42;;;;;;;7.13;1.30;;;21.10;93.60;;;;;;5071333;28;20567;-71
2021/03/15 08:30:21;;;;;;;6.07;1.70;;;21.00;94.10;;;;;;5072220;28;20214;-70
2021/03/15 08:32:48;;;;;;;9.60;2.90;;;21.00;94.10;;;;;;5072017;28;20182;-71
2021/03/15 08:35:17;;;;;;;18.00;8.73;;;21.00;94.60;;;;;;5071991;28;20274;-69
2021/03/15 08:38:04;;;;;;;6.33;1.77;;;21.00;94.70;;;;;;5071124;28;20191;-72
2021/03/15 08:40:43;;;;;;;10.50;2.03;;;20.80;94.90;;;;;;5072431;28;20251;-72
2021/03/15 08:43:22;;;;;;;4.27;1.50;;;20.70;95.50;;;;;;5071995;28;20253;-68
2021/03/15 08:45:54;;;;;;;6.23;1.80;;;20.60;95.50;;;;;;5072457;28;20175;-68
2021/03/15 08:48:35;;;;;;;5.83;1.70;;;20.60;96.10;;;;;;5070773;28;20317;-73
2021/03/15 08:51:04;;;;;;;14.83;2.77;;;20.60;96.30;;;;;;5071330;28;20195;-73
2021/03/15 08:53:41;;;;;;;9.23;4.43;;;20.60;96.80;;;;;;5069748;28;20171;-73
2021/03/15 08:56:17;;;;;;;14.27;4.70;;;20.50;97.20;;;;;;5072340;28;20210;-72
2021/03/15 08:58:51;;;;;;;9.93;2.00;;;20.40;97.30;;;;;;5071973;28;20257;-72
2021/03/15 09:01:21;;;;;;;6.30;1.70;;;20.30;97.50;;;;;;5072039;28;20179;-71
2021/03/15 09:03:55;;;;;;;8.57;1.50;;;20.30;97.90;;;;;;5068925;28;20180;-72
2021/03/15 09:06:32;;;;;;;9.10;1.40;;;20.30;98.30;;;;;;5072100;28;20186;-71
2021/03/15 09:09:03;;;;;;;11.93;2.00;;;20.20;98.30;;;;;;5071898;28;20290;-72
2021/03/15 09:11:36;;;;;;;9.60;1.83;;;20.20;98.60;;;;;;5071580;28;20175;-72
2021/03/15 09:14:16;;;;;;;7.63;1.73;;;20.10;98.40;;;;;;5071015;28;20179;-69
2021/03/15 09:16:45;;;;;;;9.93;1.40;;;20.10;98.90;;;;;;5069156;28;20186;-69
2021/03/15 09:19:23;;;;;;;10.13;1.57;;;20.10;99.10;;;;;;5070444;28;20184;-69
2021/03/15 09:21:58;;;;;;;11.43;1.90;;;20.10;99.00;;;;;;5071620;28;20183;-68
2021/03/15 09:24:46;;;;;;;5.40;1.60;;;20.00;99.40;;;;;;5071142;28;20236;-71
2021/03/15 09:27:27;;;;;;;7.00;1.60;;;20.00;99.20;;;;;;5064975;28;20311;-69
2021/03/15 09:30:08;;;;;;;9.80;1.70;;;20.00;99.50;;;;;;5068803;28;20191;-68
2021/03/15 09:32:52;;;;;;;7.87;2.03;;;20.00;99.90;;;;;;5074841;28;20167;-70
2021/03/15 09:35:23;;;;;;;7.73;1.83;;;19.90;99.90;;;;;;5075191;28;20527;-70
2021/03/15 09:37:57;;;;;;;7.80;1.90;;;19.90;99.90;;;;;;5075316;28;20203;-69
2021/03/15 09:40:28;;;;;;;8.00;3.00;;;19.90;99.90;;;;;;5074993;28;20254;-71
2021/03/15 09:42:56;;;;;;;13.23;9.23;;;19.90;99.90;;;;;;5075218;28;20258;-71
2021/03/15 09:45:27;;;;;;;5.17;1.70;;;19.80;99.90;;;;;;5075316;28;20266;-72
2021/03/15 09:47:55;;;;;;;5.83;1.57;;;19.80;99.90;;;;;;5073565;28;20211;-71
2021/03/15 09:50:28;;;;;;;7.33;2.00;;;19.80;99.90;;;;;;5074373;28;20183;-70
2021/03/15 09:53:06;;;;;;;5.13;1.57;;;19.70;99.90;;;;;;5075190;28;20253;-73
2021/03/15 09:55:34;;;;;;;8.53;1.70;;;19.70;99.80;;;;;;5074784;28;20654;-72
2021/03/15 09:58:09;;;;;;;6.37;1.40;;;19.60;99.00;;;;;;5075214;28;20201;-71
2021/03/15 10:00:37;;;;;;;5.07;1.20;;;19.60;98.40;;;;;;5073337;28;20548;-68
2021/03/15 10:03:05;;;;;;;5.73;1.67;;;19.60;97.60;;;;;;5073928;28;20171;-72
2021/03/15 10:05:32;;;;;;;6.93;2.03;;;19.50;97.40;;;;;;5074972;28;20187;-71
2021/03/15 10:08:00;;;;;;;5.60;1.23;;;19.50;96.70;;;;;;5074812;28;20759;-71
2021/03/15 10:10:27;;;;;;;5.87;1.70;;;19.50;96.50;;;;;;5073423;28;20651;-69
2021/03/15 10:13:06;;;;;;;7.33;1.80;;;19.50;96.80;;;;;;5074439;28;20182;-69
2021/03/15 10:15:34;;;;;;;5.57;1.50;;;19.40;96.60;;;;;;5074450;28;20634;-69
2021/03/15 10:18:02;;;;;;;7.37;1.40;;;19.40;96.90;;;;;;5073771;28;20190;-69
2021/03/15 10:20:31;;;;;;;6.43;1.43;;;19.40;97.00;;;;;;5068674;28;20186;-69
2021/03/15 10:23:20;;;;;;;8.87;1.67;;;19.40;97.00;;;;;;5074034;28;20269;-71
2021/03/15 10:26:16;;;;;;;7.60;1.20;;;19.30;96.50;;;;;;5074159;28;20175;-72
2021/03/15 10:28:48;;;;;;;5.93;1.60;;;19.30;96.60;;;;;;5061437;28;20219;-72
2021/03/15 10:31:17;;;;;;;8.60;1.30;;;19.30;96.40;;;;;;5074487;28;20186;-72
2021/03/15 10:33:46;;;;;;;7.13;1.30;;;19.30;96.30;;;;;;5073684;28;20221;-72
2021/03/15 10:36:24;;;;;;;3.20;1.37;;;19.30;96.40;;;;;;5072096;28;20178;-71
2021/03/15 10:38:52;;;;;;;3.63;1.20;;;19.20;96.10;;;;;;5074104;28;20262;-72
2021/03/15 10:41:19;;;;;;;4.63;1.00;;;19.30;96.20;;;;;;5071749;28;20237;-72
2021/03/15 10:43:48;;;;;;;5.70;1.20;;;19.30;96.60;;;;;;5072286;28;20187;-73
2021/03/15 10:46:24;;;;;;;5.53;1.07;;;19.30;96.80;;;;;;5069463;28;20642;-71
2021/03/15 10:48:51;;;;;;;5.17;1.20;;;19.20;96.80;;;;;;5072481;28;20219;-73
2021/03/15 10:51:19;;;;;;;7.57;1.43;;;19.10;97.00;;;;;;5070145;28;20176;-72
2021/03/15 10:53:51;;;;;;;7.33;1.30;;;19.10;97.20;;;;;;5073173;28;20175;-71
2021/03/15 10:56:23;;;;;;;5.27;1.30;;;19.10;97.20;;;;;;5073396;28;20198;-72
2021/03/15 10:58:51;;;;;;;4.83;1.20;;;19.10;97.80;;;;;;5060706;28;20172;-72
2021/03/15 11:01:25;;;;;;;4.70;1.23;;;19.10;97.60;;;;;;5061767;28;20317;-72
2021/03/15 11:04:08;;;;;;;4.93;1.37;;;19.10;97.90;;;;;;5072034;28;20225;-72
2021/03/15 11:06:36;;;;;;;8.23;1.70;;;19.10;97.60;;;;;;5070695;28;20191;-72
2021/03/15 11:09:03;;;;;;;4.40;1.43;;;19.00;97.90;;;;;;5072676;28;20306;-70
2021/03/15 11:11:32;;;;;;;7.03;1.43;;;19.00;97.90;;;;;;5073006;28;20202;-72
2021/03/15 11:14:07;;;;;;;4.10;1.70;;;19.00;98.00;;;;;;5071015;28;20183;-71
2021/03/15 11:16:35;;;;;;;7.97;1.97;;;18.90;98.10;;;;;;5073218;28;20181;-73
2021/03/15 11:19:08;;;;;;;4.43;1.50;;;18.90;98.30;;;;;;5071098;28;20314;-72
2021/03/15 11:21:41;;;;;;;5.00;1.57;;;18.80;97.90;;;;;;5072385;28;20179;-68
2021/03/15 11:24:09;;;;;;;5.37;1.37;;;18.80;97.70;;;;;;5072173;28;20183;-71
2021/03/15 11:26:54;;;;;;;4.17;1.30;;;18.80;97.70;;;;;;5071200;28;20187;-69
2021/03/15 11:29:42;;;;;;;4.03;1.00;;;18.80;97.80;;;;;;5072946;28;20250;-71
2021/03/15 11:32:12;;;;;;;3.03;1.00;;;18.70;98.00;;;;;;5059939;28;20210;-72
2021/03/15 11:34:47;;;;;;;2.97;1.27;;;18.70;97.50;;;;;;5072097;28;20171;-71
2021/03/15 11:37:14;;;;;;;4.23;1.17;;;18.60;97.50;;;;;;5073220;28;20748;-70
2021/03/15 11:39:45;;;;;;;5.07;1.00;;;18.60;97.90;;;;;;5072562;28;20272;-72
2021/03/15 11:42:31;;;;;;;6.30;1.23;;;18.60;98.30;;;;;;5069389;28;20187;-72
2021/03/15 11:44:59;;;;;;;6.63;1.23;;;18.50;98.50;;;;;;5059092;28;20693;-72
2021/03/15 11:47:27;;;;;;;4.73;1.33;;;18.40;98.80;;;;;;5069264;28;20561;-71
2021/03/15 11:49:54;;;;;;;4.60;1.13;;;18.40;99.10;;;;;;5064461;28;20215;-72
2021/03/15 11:52:29;;;;;;;4.97;1.57;;;18.30;99.40;;;;;;5063165;28;20229;-73
2021/03/15 11:54:56;;;;;;;3.37;1.17;;;18.30;99.90;;;;;;5067646;28;20541;-72
2021/03/15 11:57:23;;;;;;;2.70;1.30;;;18.30;99.90;;;;;;5066095;28;20535;-72
2021/03/15 11:59:52;;;;;;;8.70;1.73;;;18.30;99.90;;;;;;5071785;28;20186;-71
2021/03/15 12:02:19;;;;;;;4.33;1.20;;;18.20;99.90;;;;;;5082961;28;20182;-72
2021/03/15 12:04:47;;;;;;;3.47;1.10;;;18.10;99.90;;;;;;5067723;28;20293;-72
2021/03/15 12:07:14;;;;;;;4.83;1.10;;;18.10;99.90;;;;;;5070293;28;20210;-70
2021/03/15 12:09:41;;;;;;;7.30;1.30;;;18.10;99.90;;;;;;5064082;28;20215;-69
2021/03/15 12:12:09;;;;;;;8.20;1.47;;;18.00;99.90;;;;;;5069574;28;20167;-69
2021/03/15 12:14:37;;;;;;;7.33;1.07;;;18.00;99.90;;;;;;5071870;28;20767;-68
2021/03/15 12:17:04;;;;;;;4.30;1.00;;;18.00;99.90;;;;;;5072673;28;20186;-69
2021/03/15 12:19:31;;;;;;;5.57;1.30;;;18.00;99.90;;;;;;5064715;28;20213;-69
2021/03/15 12:21:59;;;;;;;5.30;1.40;;;18.00;99.90;;;;;;5062567;28;20181;-69
2021/03/15 12:24:26;;;;;;;10.40;2.50;;;18.00;99.90;;;;;;5072724;28;20569;-69
2021/03/15 12:26:54;;;;;;;6.97;1.77;;;18.00;99.90;;;;;;5069526;28;20223;-70
2021/03/15 12:29:22;;;;;;;5.97;1.17;;;17.90;99.90;;;;;;5071395;28;20215;-69
2021/03/15 12:31:49;;;;;;;7.13;1.60;;;17.90;99.90;;;;;;5072220;28;20225;-70
2021/03/15 12:34:17;;;;;;;5.97;1.20;;;17.80;99.90;;;;;;5072594;28;20316;-71
2021/03/15 12:36:44;;;;;;;5.53;1.50;;;17.80;99.90;;;;;;5072276;28;20167;-72
2021/03/15 12:39:12;;;;;;;6.67;1.30;;;17.80;99.90;;;;;;5070831;28;20183;-72
2021/03/15 12:41:39;;;;;;;9.30;1.57;;;17.70;99.90;;;;;;5068380;28;20169;-72
2021/03/15 12:44:07;;;;;;;4.13;1.30;;;17.60;99.90;;;;;;5062069;28;20191;-71
2021/03/15 12:46:34;;;;;;;8.63;1.40;;;17.60;99.90;;;;;;5071460;28;20183;-70
2021/03/15 12:49:01;;;;;;;5.53;1.20;;;17.60;99.90;;;;;;5069449;28;20742;-70
2021/03/15 12:51:30;;;;;;;8.43;1.50;;;17.50;99.90;;;;;;5068169;28;20269;-69
2021/03/15 12:53:57;;;;;;;5.67;1.60;;;17.40;99.90;;;;;;5071582;28;20186;-70
2021/03/15 12:56:25;;;;;;;4.80;1.57;;;17.40;99.90;;;;;;5069677;28;20198;-70
2021/03/15 12:58:52;;;;;;;10.33;1.50;;;17.40;99.90;;;;;;5070175;28;20555;-69
2021/03/15 13:01:20;;;;;;;5.40;1.40;;;17.30;99.90;;;;;;5069649;28;20191;-70
2021/03/15 13:03:47;;;;;;;6.17;1.60;;;17.30;99.90;;;;;;5069634;28;20237;-70
2021/03/15 13:06:18;;;;;;;9.07;1.70;;;17.30;99.90;;;;;;5073995;28;20179;-69
2021/03/15 13:08:46;;;;;;;7.00;1.50;;;17.20;99.90;;;;;;5072458;28;20201;-69